ЗЦ Хабаровск

Зональный центр "Дальконтроль" предоставляет диспетчерское обслуживает воздушного движения сети "VATSIM" в РПИ Хабаровск (UHHH), Якутск (UEEE), Магадан (UHMM), Петропавловск - Камчатский (UHPP) на диспетчерском пункте RU-ERC_FSS с позывным "Дальконтроль" на всех высотах.

Лого ЗЦ Хабаровск
Руководитель региона

Sergey Balandin

Контакты

Инструкторы региона
Ivan Aksenenko (Instructor)
Sergey Balandin (Senior Instructor)
Включает в себя

РПИ Магадан
РПИ Петропавловск-Камчатский
РПИ Хабаровск
РПИ Якутск

Диспетчеры региона

Диспетчер Рейтинг Допуски *
Alex Kalchenko Senior Student UHMM_CTR *, UHMM_APP
Denis Makosov Senior Student UHHH_CTR *, UHPP_TWR, UHWW_GND, UHSS_GND, UHSS_R_APP, UHWW_TWR
Georgii Gamsakhurdiia Controller UHHH_CTR, UHHH_APP, UHWW_GND
Igor Melnick Supervisor UHHH_CTR
Ivan Aksenenko Instructor UHHH_CTR
Konstantin Gorbunov Controller UHHH_CTR *, UHWW_APP
Konstantin Gordeev Controller UHMM_CTR
Maxim Osmolovskiy Senior Student UHHH_CTR *, UHWW_TWR, UHHH_APP
Nikolay Yamushev Controller UHHH_CTR
Sergey Balandin Senior Instructor UHMM_CTR, UHPP_CTR, UHHH_CTR, UEEE_CTR
Vadim Kotelenec Senior Student UHHH_CTR *, UHHH_APP
Alexander Shkut Senior Student UHSS_R_APP, UHWW_APP
Atsamaz Khodov Senior Student UHHH_APP
Daniel Cherednichenko Student 2 UHPP_GND!!!, UHSS_R_APP*, UHSS_GND
Denis Zhilyakov Student UHHH_GND*
Egor Garifulin Student 2 UHHH_TWR, UHHH_GND, UHHH_R_APP*
Evgenii Semendiaev Student UHHH_TWR*
Igor Zarubin Student UHPP_TWR*
Kirill Babinsev Student 2 UHMM_GND!!!, UHSS_R_APP*
Kirill Ryabov Student 2 UHWW_GND, UHHH_GND
Maxim Korobko Student 2 UHWW_TWR, UHHH_APP*
Maxim Sukhorukov Student 2 UHHH_TWR
Nikita Brynkov Student UHSS_TWR*
Nikita Gonjarov Student 2 UHMA_TWR
Nikita Zikeev Student 2 UHWW_R_APP*, UHWW_GND, UHSS_GND
Ravil Kohanovsky Student UHWW_GND
Roman Vorontsov Student UHHH_GND*
Timur isikdemir Student UHSS_GND
Yaroslav Tretelnitskiy Student 2 UHWW_R_APP*, UHWW_TWR, UHWW_GND

Аэропорты региона

ICAO Город Название Погода
UHMA Анадырь Угольный UHMA 020200Z 14005MPS 6000 -RA SCT003 SCT012 BKN038 09/08 Q0998 R01/////// NOSIG RMK TDZ R01/14005G06MPS END R01/10005G07MPS QFE744/0993
UHBB Благовещенск Игнатьево UHBB 020230Z 20003MPS 9999 SCT033CB 29/18 Q1005 R36/090060 NOSIG RMK QFE737/0982
UHWW Владивосток Владивосток UHWW 020230Z VRB01MPS 9999 NSC 24/19 Q1011 R25L/0///70 NOSIG RMK QFE757
UHKD Комсомольск-на-Амуре Дзёмги
UHKK Комсомольск-на-Амуре Хурба
UERL Ленск Ленск
UHMM Магадан Магадан UHMM 020230Z 02005MPS 9999 FEW040 SCT070 23/05 Q0999 R10/70D NOSIG RMK QFE735 R28/06005MPS
UERR Мирный Мирный UERR 020230Z 15006MPS 9999 SCT040 27/10 Q1001 R07/CLRD60 NOSIG RMK QFE721/0961
UELL Нерюнгри Чульман
UHNN Николаевск-на-Амуре Николаевск-на-Амуре
UHOO Охотск Охотск
UHMP Певек Певек
UHPP Петропавловск-Камчатский Елизово UHPP 020230Z 34010MPS 310V010 9999 FEW046 22/10 Q0996 R34L/CLRD70 NOSIG RMK MT OBSC QFE743/0991
UHMD Провидения Бухта Провидения UHMD 010200Z 08005MPS 9999 OVC028 13/10 Q1008 RMK QBB850 QFE755/1007
UHKG Советская Гавань Каменный Ручей
UHKM Советская Гавань Май-Гатка
UEST Тикси Тикси
UERP Удачный Полярный UERP 020200Z 16003MPS CAVOK 22/10 Q1001 RMK QFE707
UHHH Хабаровск Хабаровск UHHH 020230Z 24002MPS 9999 SCT035CB 25/18 Q1008 R23R/090060 NOSIG RMK QFE750/1000
UESS Черский Черский
UHSS Южно-Сахалинск Хомутово UHSS 020230Z 18005MPS 9999 NSC 25/18 Q1009 R19/70D NOSIG RMK QFE755/1007
UEEE Якутск Якутск UEEE 020230Z 13003MPS CAVOK 27/11 Q1005 R23L/09//60 NOSIG RMK QFE745
UHBS
UHNA Аян Аян
UHNB Богородское Богородское
UHSB Буревестник Буревестник
UHBE Зея Зея
UHSO Зональное Зональное
UHWK Кавалерово Кавалерово
UHEK Купол Купол
UHSI Курильск Итуруп
UHBI Магдагачи Магдагачи
UHSN Ноглики Ноглики
UHSH Оха Новостройка
UHWP Пластун Пластун
UHBW Тында Тында
UEMU Усть-Мая Усть-Мая
UHHT Хабаровск Хабаровск
UHHY Чумикан Чумикан
UHSK Шахтерск Шахтёрск
UHBP Экимчан Экимчан
UHSM Южно-Курильск Менделеево